sensor_id;sensor_type;location;lat;lon;timestamp;P1;durP1;ratioP1;P2;durP2;ratioP2
17441;SDS011;8838;50.144;8.176;2023-05-07T00:00:45;3.63;;;1.42;;
17441;SDS011;8838;50.144;8.176;2023-05-07T00:03:13;2.97;;;1.55;;
17441;SDS011;8838;50.144;8.176;2023-05-07T00:05:40;2.85;;;1.30;;
17441;SDS011;8838;50.144;8.176;2023-05-07T00:08:07;2.13;;;1.50;;
17441;SDS011;8838;50.144;8.176;2023-05-07T00:10:34;2.00;;;1.50;;
17441;SDS011;8838;50.144;8.176;2023-05-07T00:13:00;3.03;;;1.60;;
17441;SDS011;8838;50.144;8.176;2023-05-07T00:15:27;3.30;;;1.50;;
17441;SDS011;8838;50.144;8.176;2023-05-07T00:17:55;2.03;;;1.30;;
17441;SDS011;8838;50.144;8.176;2023-05-07T00:20:23;5.47;;;1.38;;
17441;SDS011;8838;50.144;8.176;2023-05-07T00:22:50;2.53;;;1.55;;
17441;SDS011;8838;50.144;8.176;2023-05-07T00:25:17;2.45;;;1.45;;
17441;SDS011;8838;50.144;8.176;2023-05-07T00:27:45;2.13;;;1.40;;
17441;SDS011;8838;50.144;8.176;2023-05-07T00:30:12;3.78;;;1.30;;
17441;SDS011;8838;50.144;8.176;2023-05-07T00:32:39;3.13;;;1.60;;
17441;SDS011;8838;50.144;8.176;2023-05-07T00:35:08;3.78;;;1.52;;
17441;SDS011;8838;50.144;8.176;2023-05-07T00:37:35;2.67;;;1.80;;
17441;SDS011;8838;50.144;8.176;2023-05-07T00:40:02;2.35;;;1.40;;
17441;SDS011;8838;50.144;8.176;2023-05-07T00:42:32;2.25;;;1.58;;
17441;SDS011;8838;50.144;8.176;2023-05-07T00:44:58;2.95;;;1.88;;
17441;SDS011;8838;50.144;8.176;2023-05-07T00:47:25;1.92;;;1.52;;
17441;SDS011;8838;50.144;8.176;2023-05-07T00:49:52;5.20;;;2.30;;
17441;SDS011;8838;50.144;8.176;2023-05-07T00:52:20;8.07;;;4.03;;
17441;SDS011;8838;50.144;8.176;2023-05-07T00:54:49;4.95;;;2.63;;
17441;SDS011;8838;50.144;8.176;2023-05-07T00:57:16;5.25;;;2.85;;
17441;SDS011;8838;50.144;8.176;2023-05-07T00:59:43;2.90;;;1.55;;
17441;SDS011;8838;50.144;8.176;2023-05-07T01:02:10;7.70;;;2.08;;
17441;SDS011;8838;50.144;8.176;2023-05-07T01:04:37;2.60;;;1.63;;
17441;SDS011;8838;50.144;8.176;2023-05-07T01:07:04;5.63;;;2.20;;
17441;SDS011;8838;50.144;8.176;2023-05-07T01:09:33;5.85;;;2.30;;
17441;SDS011;8838;50.144;8.176;2023-05-07T01:12:01;4.53;;;2.22;;
17441;SDS011;8838;50.144;8.176;2023-05-07T01:14:30;7.78;;;2.63;;
17441;SDS011;8838;50.144;8.176;2023-05-07T01:16:58;4.60;;;2.00;;
17441;SDS011;8838;50.144;8.176;2023-05-07T01:19:25;6.28;;;3.13;;
17441;SDS011;8838;50.144;8.176;2023-05-07T01:21:52;6.35;;;3.22;;
17441;SDS011;8838;50.144;8.176;2023-05-07T01:24:35;7.90;;;2.85;;
17441;SDS011;8838;50.144;8.176;2023-05-07T01:27:03;3.25;;;1.73;;
17441;SDS011;8838;50.144;8.176;2023-05-07T01:29:29;4.22;;;1.58;;
17441;SDS011;8838;50.144;8.176;2023-05-07T01:31:56;2.50;;;1.52;;
17441;SDS011;8838;50.144;8.176;2023-05-07T01:34:25;1.85;;;1.50;;
17441;SDS011;8838;50.144;8.176;2023-05-07T01:36:54;4.70;;;1.60;;
17441;SDS011;8838;50.144;8.176;2023-05-07T01:39:23;3.03;;;1.92;;
17441;SDS011;8838;50.144;8.176;2023-05-07T01:41:53;2.67;;;1.65;;
17441;SDS011;8838;50.144;8.176;2023-05-07T01:44:20;2.15;;;1.42;;
17441;SDS011;8838;50.144;8.176;2023-05-07T01:46:48;5.10;;;1.60;;
17441;SDS011;8838;50.144;8.176;2023-05-07T01:49:15;2.40;;;1.42;;
17441;SDS011;8838;50.144;8.176;2023-05-07T01:51:42;4.05;;;2.97;;
17441;SDS011;8838;50.144;8.176;2023-05-07T01:54:10;4.30;;;1.70;;
17441;SDS011;8838;50.144;8.176;2023-05-07T01:56:37;4.15;;;1.90;;
17441;SDS011;8838;50.144;8.176;2023-05-07T01:59:05;3.50;;;1.60;;
17441;SDS011;8838;50.144;8.176;2023-05-07T02:01:31;4.07;;;1.77;;
17441;SDS011;8838;50.144;8.176;2023-05-07T02:03:58;1.98;;;1.60;;
17441;SDS011;8838;50.144;8.176;2023-05-07T02:06:25;3.28;;;2.20;;
17441;SDS011;8838;50.144;8.176;2023-05-07T02:08:52;4.13;;;1.50;;
17441;SDS011;8838;50.144;8.176;2023-05-07T02:11:18;2.60;;;1.63;;
17441;SDS011;8838;50.144;8.176;2023-05-07T02:13:45;3.33;;;1.77;;
17441;SDS011;8838;50.144;8.176;2023-05-07T02:16:14;3.38;;;1.58;;
17441;SDS011;8838;50.144;8.176;2023-05-07T02:18:41;3.92;;;1.80;;
17441;SDS011;8838;50.144;8.176;2023-05-07T02:21:08;3.67;;;2.03;;
17441;SDS011;8838;50.144;8.176;2023-05-07T02:23:35;2.88;;;2.00;;
17441;SDS011;8838;50.144;8.176;2023-05-07T02:26:04;4.75;;;1.98;;
17441;SDS011;8838;50.144;8.176;2023-05-07T02:28:30;2.88;;;1.70;;
17441;SDS011;8838;50.144;8.176;2023-05-07T02:31:00;2.72;;;1.80;;
17441;SDS011;8838;50.144;8.176;2023-05-07T02:33:29;4.82;;;1.88;;
17441;SDS011;8838;50.144;8.176;2023-05-07T02:35:56;4.47;;;1.95;;
17441;SDS011;8838;50.144;8.176;2023-05-07T02:38:23;4.47;;;1.90;;
17441;SDS011;8838;50.144;8.176;2023-05-07T02:40:50;2.67;;;1.75;;
17441;SDS011;8838;50.144;8.176;2023-05-07T02:43:16;3.22;;;1.55;;
17441;SDS011;8838;50.144;8.176;2023-05-07T02:45:43;3.15;;;1.60;;
17441;SDS011;8838;50.144;8.176;2023-05-07T02:48:10;5.05;;;1.80;;
17441;SDS011;8838;50.144;8.176;2023-05-07T02:50:38;2.22;;;1.80;;
17441;SDS011;8838;50.144;8.176;2023-05-07T02:53:05;2.33;;;1.77;;
17441;SDS011;8838;50.144;8.176;2023-05-07T02:55:32;3.00;;;2.00;;
17441;SDS011;8838;50.144;8.176;2023-05-07T02:57:59;2.60;;;1.77;;
17441;SDS011;8838;50.144;8.176;2023-05-07T03:00:26;3.00;;;1.95;;
17441;SDS011;8838;50.144;8.176;2023-05-07T03:02:52;2.00;;;1.60;;
17441;SDS011;8838;50.144;8.176;2023-05-07T03:05:19;3.92;;;2.00;;
17441;SDS011;8838;50.144;8.176;2023-05-07T03:07:47;2.38;;;1.52;;
17441;SDS011;8838;50.144;8.176;2023-05-07T03:10:14;3.33;;;1.83;;
17441;SDS011;8838;50.144;8.176;2023-05-07T03:12:41;3.78;;;1.67;;
17441;SDS011;8838;50.144;8.176;2023-05-07T03:15:08;6.25;;;2.05;;
17441;SDS011;8838;50.144;8.176;2023-05-07T03:17:36;3.28;;;1.73;;
17441;SDS011;8838;50.144;8.176;2023-05-07T03:20:03;3.90;;;1.50;;
17441;SDS011;8838;50.144;8.176;2023-05-07T03:22:31;3.03;;;1.77;;
17441;SDS011;8838;50.144;8.176;2023-05-07T03:24:59;2.05;;;1.63;;
17441;SDS011;8838;50.144;8.176;2023-05-07T03:27:26;4.18;;;1.67;;
17441;SDS011;8838;50.144;8.176;2023-05-07T03:29:53;3.40;;;2.00;;
17441;SDS011;8838;50.144;8.176;2023-05-07T03:32:19;3.53;;;1.60;;
17441;SDS011;8838;50.144;8.176;2023-05-07T03:34:46;8.07;;;2.10;;
17441;SDS011;8838;50.144;8.176;2023-05-07T03:37:13;3.28;;;1.70;;
17441;SDS011;8838;50.144;8.176;2023-05-07T03:39:40;3.03;;;1.70;;
17441;SDS011;8838;50.144;8.176;2023-05-07T03:42:08;3.90;;;1.70;;
17441;SDS011;8838;50.144;8.176;2023-05-07T03:44:34;2.33;;;1.65;;
17441;SDS011;8838;50.144;8.176;2023-05-07T03:47:02;5.50;;;1.75;;
17441;SDS011;8838;50.144;8.176;2023-05-07T03:49:28;1.60;;;1.50;;
17441;SDS011;8838;50.144;8.176;2023-05-07T03:51:55;2.72;;;1.58;;
17441;SDS011;8838;50.144;8.176;2023-05-07T03:54:22;2.58;;;1.50;;
17441;SDS011;8838;50.144;8.176;2023-05-07T03:56:49;2.97;;;1.92;;
17441;SDS011;8838;50.144;8.176;2023-05-07T03:59:17;2.33;;;1.88;;
17441;SDS011;8838;50.144;8.176;2023-05-07T04:01:44;3.42;;;1.70;;
17441;SDS011;8838;50.144;8.176;2023-05-07T04:04:10;2.00;;;1.80;;
17441;SDS011;8838;50.144;8.176;2023-05-07T04:06:37;2.40;;;1.67;;
17441;SDS011;8838;50.144;8.176;2023-05-07T04:09:06;5.20;;;1.73;;
17441;SDS011;8838;50.144;8.176;2023-05-07T04:11:33;4.35;;;2.25;;
17441;SDS011;8838;50.144;8.176;2023-05-07T04:14:00;3.92;;;1.90;;
17441;SDS011;8838;50.144;8.176;2023-05-07T04:16:28;4.07;;;2.08;;
17441;SDS011;8838;50.144;8.176;2023-05-07T04:18:55;1.83;;;1.60;;
17441;SDS011;8838;50.144;8.176;2023-05-07T04:21:22;2.05;;;1.70;;
17441;SDS011;8838;50.144;8.176;2023-05-07T04:23:49;3.97;;;1.83;;
17441;SDS011;8838;50.144;8.176;2023-05-07T04:26:16;3.10;;;1.80;;
17441;SDS011;8838;50.144;8.176;2023-05-07T04:28:42;4.25;;;1.70;;
17441;SDS011;8838;50.144;8.176;2023-05-07T04:31:09;4.15;;;1.98;;
17441;SDS011;8838;50.144;8.176;2023-05-07T04:33:37;4.00;;;1.90;;
17441;SDS011;8838;50.144;8.176;2023-05-07T04:36:04;1.73;;;1.48;;
17441;SDS011;8838;50.144;8.176;2023-05-07T04:38:31;4.50;;;1.77;;
17441;SDS011;8838;50.144;8.176;2023-05-07T04:41:02;3.05;;;1.80;;
17441;SDS011;8838;50.144;8.176;2023-05-07T04:43:30;4.93;;;1.70;;
17441;SDS011;8838;50.144;8.176;2023-05-07T04:45:57;4.30;;;2.10;;
17441;SDS011;8838;50.144;8.176;2023-05-07T04:48:23;4.13;;;1.90;;
17441;SDS011;8838;50.144;8.176;2023-05-07T04:50:52;3.20;;;1.70;;
17441;SDS011;8838;50.144;8.176;2023-05-07T04:53:19;2.95;;;1.95;;
17441;SDS011;8838;50.144;8.176;2023-05-07T04:55:46;3.30;;;1.88;;
17441;SDS011;8838;50.144;8.176;2023-05-07T04:58:13;3.75;;;1.80;;
17441;SDS011;8838;50.144;8.176;2023-05-07T05:00:40;4.10;;;1.73;;
17441;SDS011;8838;50.144;8.176;2023-05-07T05:03:08;2.00;;;1.90;;
17441;SDS011;8838;50.144;8.176;2023-05-07T05:05:36;2.97;;;2.20;;
17441;SDS011;8838;50.144;8.176;2023-05-07T05:08:04;3.25;;;2.00;;
17441;SDS011;8838;50.144;8.176;2023-05-07T05:10:31;4.00;;;2.05;;
17441;SDS011;8838;50.144;8.176;2023-05-07T05:12:58;5.28;;;2.55;;
17441;SDS011;8838;50.144;8.176;2023-05-07T05:15:24;4.25;;;2.45;;
17441;SDS011;8838;50.144;8.176;2023-05-07T05:17:51;3.33;;;2.30;;
17441;SDS011;8838;50.144;8.176;2023-05-07T05:20:18;3.92;;;2.28;;
17441;SDS011;8838;50.144;8.176;2023-05-07T05:22:45;3.65;;;2.10;;
17441;SDS011;8838;50.144;8.176;2023-05-07T05:25:13;4.25;;;2.45;;
17441;SDS011;8838;50.144;8.176;2023-05-07T05:27:40;3.15;;;2.30;;
17441;SDS011;8838;50.144;8.176;2023-05-07T05:30:07;3.03;;;2.10;;
17441;SDS011;8838;50.144;8.176;2023-05-07T05:32:34;4.63;;;2.13;;
17441;SDS011;8838;50.144;8.176;2023-05-07T05:35:03;4.30;;;2.45;;
17441;SDS011;8838;50.144;8.176;2023-05-07T05:37:30;4.35;;;2.30;;
17441;SDS011;8838;50.144;8.176;2023-05-07T05:39:57;4.05;;;2.10;;
17441;SDS011;8838;50.144;8.176;2023-05-07T05:42:25;3.55;;;2.20;;
17441;SDS011;8838;50.144;8.176;2023-05-07T05:44:52;4.90;;;2.33;;
17441;SDS011;8838;50.144;8.176;2023-05-07T05:47:19;4.72;;;2.22;;
17441;SDS011;8838;50.144;8.176;2023-05-07T05:49:45;3.42;;;2.20;;
17441;SDS011;8838;50.144;8.176;2023-05-07T05:52:12;3.15;;;2.33;;
17441;SDS011;8838;50.144;8.176;2023-05-07T05:54:39;4.63;;;2.65;;
17441;SDS011;8838;50.144;8.176;2023-05-07T05:57:06;7.65;;;2.20;;
17441;SDS011;8838;50.144;8.176;2023-05-07T05:59:34;6.05;;;2.33;;
17441;SDS011;8838;50.144;8.176;2023-05-07T06:02:01;5.55;;;2.60;;
17441;SDS011;8838;50.144;8.176;2023-05-07T06:04:28;3.58;;;2.28;;
17441;SDS011;8838;50.144;8.176;2023-05-07T06:06:55;2.83;;;2.20;;
17441;SDS011;8838;50.144;8.176;2023-05-07T06:09:22;4.43;;;2.60;;
17441;SDS011;8838;50.144;8.176;2023-05-07T06:11:49;3.88;;;2.00;;
17441;SDS011;8838;50.144;8.176;2023-05-07T06:14:16;3.42;;;2.30;;
17441;SDS011;8838;50.144;8.176;2023-05-07T06:16:44;2.50;;;1.98;;
17441;SDS011;8838;50.144;8.176;2023-05-07T06:19:11;4.00;;;2.10;;
17441;SDS011;8838;50.144;8.176;2023-05-07T06:21:40;2.42;;;1.80;;
17441;SDS011;8838;50.144;8.176;2023-05-07T06:24:06;3.20;;;2.00;;
17441;SDS011;8838;50.144;8.176;2023-05-07T06:26:33;3.17;;;1.90;;
17441;SDS011;8838;50.144;8.176;2023-05-07T06:29:00;2.47;;;1.80;;
17441;SDS011;8838;50.144;8.176;2023-05-07T06:31:29;4.43;;;1.80;;
17441;SDS011;8838;50.144;8.176;2023-05-07T06:33:58;4.20;;;1.98;;
17441;SDS011;8838;50.144;8.176;2023-05-07T06:36:27;3.72;;;1.98;;
17441;SDS011;8838;50.144;8.176;2023-05-07T06:38:53;2.78;;;1.92;;
17441;SDS011;8838;50.144;8.176;2023-05-07T06:41:20;2.35;;;1.70;;
17441;SDS011;8838;50.144;8.176;2023-05-07T06:43:47;2.40;;;1.77;;
17441;SDS011;8838;50.144;8.176;2023-05-07T06:46:14;2.35;;;1.55;;
17441;SDS011;8838;50.144;8.176;2023-05-07T06:48:41;3.10;;;1.50;;
17441;SDS011;8838;50.144;8.176;2023-05-07T06:51:09;3.30;;;1.60;;
17441;SDS011;8838;50.144;8.176;2023-05-07T06:53:36;2.55;;;1.60;;
17441;SDS011;8838;50.144;8.176;2023-05-07T06:56:04;2.40;;;1.75;;
17441;SDS011;8838;50.144;8.176;2023-05-07T06:58:31;5.25;;;1.73;;
17441;SDS011;8838;50.144;8.176;2023-05-07T07:00:58;1.75;;;1.40;;
17441;SDS011;8838;50.144;8.176;2023-05-07T07:03:25;4.88;;;1.60;;
17441;SDS011;8838;50.144;8.176;2023-05-07T07:05:52;1.33;;;1.20;;
17441;SDS011;8838;50.144;8.176;2023-05-07T07:08:20;4.55;;;1.50;;
17441;SDS011;8838;50.144;8.176;2023-05-07T07:10:47;1.75;;;1.48;;
17441;SDS011;8838;50.144;8.176;2023-05-07T07:13:14;1.98;;;1.63;;
17441;SDS011;8838;50.144;8.176;2023-05-07T07:15:41;2.15;;;1.27;;
17441;SDS011;8838;50.144;8.176;2023-05-07T07:18:08;3.85;;;1.40;;
17441;SDS011;8838;50.144;8.176;2023-05-07T07:20:35;3.60;;;1.60;;
17441;SDS011;8838;50.144;8.176;2023-05-07T07:23:02;1.88;;;1.50;;
17441;SDS011;8838;50.144;8.176;2023-05-07T07:25:30;2.25;;;1.42;;
17441;SDS011;8838;50.144;8.176;2023-05-07T07:27:56;1.70;;;1.48;;
17441;SDS011;8838;50.144;8.176;2023-05-07T07:30:25;3.20;;;1.67;;
17441;SDS011;8838;50.144;8.176;2023-05-07T07:32:52;4.45;;;1.55;;
17441;SDS011;8838;50.144;8.176;2023-05-07T07:35:20;2.78;;;1.30;;
17441;SDS011;8838;50.144;8.176;2023-05-07T07:37:46;4.10;;;1.50;;
17441;SDS011;8838;50.144;8.176;2023-05-07T07:40:14;2.30;;;1.80;;
17441;SDS011;8838;50.144;8.176;2023-05-07T07:42:43;4.47;;;2.10;;
17441;SDS011;8838;50.144;8.176;2023-05-07T07:45:10;2.10;;;1.90;;
17441;SDS011;8838;50.144;8.176;2023-05-07T07:47:37;2.30;;;1.85;;
17441;SDS011;8838;50.144;8.176;2023-05-07T07:50:04;1.85;;;1.48;;
17441;SDS011;8838;50.144;8.176;2023-05-07T07:52:32;2.35;;;1.67;;
17441;SDS011;8838;50.144;8.176;2023-05-07T07:54:59;2.42;;;1.60;;
17441;SDS011;8838;50.144;8.176;2023-05-07T07:57:25;2.53;;;1.70;;
17441;SDS011;8838;50.144;8.176;2023-05-07T07:59:53;2.30;;;1.75;;
17441;SDS011;8838;50.144;8.176;2023-05-07T08:02:20;6.55;;;1.70;;
17441;SDS011;8838;50.144;8.176;2023-05-07T08:04:47;1.70;;;1.60;;
17441;SDS011;8838;50.144;8.176;2023-05-07T08:07:14;1.70;;;1.40;;
17441;SDS011;8838;50.144;8.176;2023-05-07T08:09:43;3.17;;;1.60;;
17441;SDS011;8838;50.144;8.176;2023-05-07T08:12:10;4.07;;;1.77;;
17441;SDS011;8838;50.144;8.176;2023-05-07T08:14:37;1.80;;;1.70;;
17441;SDS011;8838;50.144;8.176;2023-05-07T08:17:05;2.42;;;1.70;;
17441;SDS011;8838;50.144;8.176;2023-05-07T08:19:32;4.07;;;1.80;;
17441;SDS011;8838;50.144;8.176;2023-05-07T08:21:59;4.68;;;1.65;;
17441;SDS011;8838;50.144;8.176;2023-05-07T08:24:29;3.33;;;2.13;;
17441;SDS011;8838;50.144;8.176;2023-05-07T08:26:56;3.08;;;1.60;;
17441;SDS011;8838;50.144;8.176;2023-05-07T08:29:24;2.50;;;1.83;;
17441;SDS011;8838;50.144;8.176;2023-05-07T08:31:51;1.92;;;1.52;;
17441;SDS011;8838;50.144;8.176;2023-05-07T08:34:21;4.03;;;1.80;;
17441;SDS011;8838;50.144;8.176;2023-05-07T08:36:50;2.33;;;1.80;;
17441;SDS011;8838;50.144;8.176;2023-05-07T08:39:17;3.92;;;1.80;;
17441;SDS011;8838;50.144;8.176;2023-05-07T08:41:44;3.90;;;2.13;;
17441;SDS011;8838;50.144;8.176;2023-05-07T08:44:12;2.63;;;1.60;;
17441;SDS011;8838;50.144;8.176;2023-05-07T08:46:42;2.50;;;1.80;;
17441;SDS011;8838;50.144;8.176;2023-05-07T08:49:13;3.58;;;1.60;;
17441;SDS011;8838;50.144;8.176;2023-05-07T08:51:42;4.40;;;1.80;;
17441;SDS011;8838;50.144;8.176;2023-05-07T08:54:09;2.60;;;1.63;;
17441;SDS011;8838;50.144;8.176;2023-05-07T08:56:37;2.17;;;1.52;;
17441;SDS011;8838;50.144;8.176;2023-05-07T08:59:05;1.83;;;1.60;;
17441;SDS011;8838;50.144;8.176;2023-05-07T09:01:32;1.77;;;1.55;;
17441;SDS011;8838;50.144;8.176;2023-05-07T09:04:01;3.30;;;1.55;;
17441;SDS011;8838;50.144;8.176;2023-05-07T09:06:28;1.95;;;1.40;;
17441;SDS011;8838;50.144;8.176;2023-05-07T09:08:57;2.65;;;1.48;;
17441;SDS011;8838;50.144;8.176;2023-05-07T09:11:26;3.50;;;1.83;;
17441;SDS011;8838;50.144;8.176;2023-05-07T09:13:53;2.65;;;1.80;;
17441;SDS011;8838;50.144;8.176;2023-05-07T09:16:21;1.77;;;1.60;;
17441;SDS011;8838;50.144;8.176;2023-05-07T09:18:50;2.60;;;2.08;;
17441;SDS011;8838;50.144;8.176;2023-05-07T09:21:19;6.88;;;2.30;;
17441;SDS011;8838;50.144;8.176;2023-05-07T09:23:47;2.35;;;1.52;;
17441;SDS011;8838;50.144;8.176;2023-05-07T09:26:19;1.60;;;1.50;;
17441;SDS011;8838;50.144;8.176;2023-05-07T09:28:47;2.28;;;1.85;;
17441;SDS011;8838;50.144;8.176;2023-05-07T09:31:15;2.17;;;1.70;;
17441;SDS011;8838;50.144;8.176;2023-05-07T09:33:42;2.95;;;1.67;;
17441;SDS011;8838;50.144;8.176;2023-05-07T09:36:09;3.85;;;1.60;;
17441;SDS011;8838;50.144;8.176;2023-05-07T09:38:36;2.95;;;1.65;;
17441;SDS011;8838;50.144;8.176;2023-05-07T09:41:04;2.65;;;1.88;;
17441;SDS011;8838;50.144;8.176;2023-05-07T09:43:34;3.53;;;1.63;;
17441;SDS011;8838;50.144;8.176;2023-05-07T09:46:06;2.33;;;1.60;;
17441;SDS011;8838;50.144;8.176;2023-05-07T09:48:35;3.47;;;1.80;;
17441;SDS011;8838;50.144;8.176;2023-05-07T09:51:06;2.00;;;1.73;;
17441;SDS011;8838;50.144;8.176;2023-05-07T09:53:41;4.60;;;1.75;;
17441;SDS011;8838;50.144;8.176;2023-05-07T09:56:12;1.88;;;1.75;;
17441;SDS011;8838;50.144;8.176;2023-05-07T09:58:41;3.20;;;2.20;;
17441;SDS011;8838;50.144;8.176;2023-05-07T10:01:10;1.92;;;1.80;;
17441;SDS011;8838;50.144;8.176;2023-05-07T10:03:38;2.40;;;1.90;;
17441;SDS011;8838;50.144;8.176;2023-05-07T10:06:06;2.95;;;1.77;;
17441;SDS011;8838;50.144;8.176;2023-05-07T10:08:34;3.25;;;1.85;;
17441;SDS011;8838;50.144;8.176;2023-05-07T10:11:03;2.20;;;2.00;;
17441;SDS011;8838;50.144;8.176;2023-05-07T10:13:32;3.03;;;1.80;;
17441;SDS011;8838;50.144;8.176;2023-05-07T10:16:04;2.08;;;1.55;;
17441;SDS011;8838;50.144;8.176;2023-05-07T10:18:32;2.35;;;1.65;;
17441;SDS011;8838;50.144;8.176;2023-05-07T10:21:01;1.60;;;1.50;;
17441;SDS011;8838;50.144;8.176;2023-05-07T10:23:32;3.00;;;2.22;;
17441;SDS011;8838;50.144;8.176;2023-05-07T10:26:01;2.35;;;1.95;;
17441;SDS011;8838;50.144;8.176;2023-05-07T10:28:30;1.80;;;1.70;;
17441;SDS011;8838;50.144;8.176;2023-05-07T10:31:07;2.10;;;1.90;;
17441;SDS011;8838;50.144;8.176;2023-05-07T10:33:44;2.47;;;1.77;;
17441;SDS011;8838;50.144;8.176;2023-05-07T10:36:15;2.17;;;1.60;;
17441;SDS011;8838;50.144;8.176;2023-05-07T10:38:43;2.05;;;1.70;;
17441;SDS011;8838;50.144;8.176;2023-05-07T10:41:11;2.58;;;2.03;;
17441;SDS011;8838;50.144;8.176;2023-05-07T10:43:39;4.20;;;2.08;;
17441;SDS011;8838;50.144;8.176;2023-05-07T10:46:13;2.15;;;1.95;;
17441;SDS011;8838;50.144;8.176;2023-05-07T10:51:35;2.50;;;2.25;;
17441;SDS011;8838;50.144;8.176;2023-05-07T10:54:18;2.53;;;2.08;;
17441;SDS011;8838;50.144;8.176;2023-05-07T10:56:46;4.40;;;2.10;;
17441;SDS011;8838;50.144;8.176;2023-05-07T10:59:34;3.22;;;2.13;;
17441;SDS011;8838;50.144;8.176;2023-05-07T11:02:08;2.40;;;1.92;;
17441;SDS011;8838;50.144;8.176;2023-05-07T11:04:39;3.55;;;1.90;;
17441;SDS011;8838;50.144;8.176;2023-05-07T11:09:56;1.95;;;1.85;;
17441;SDS011;8838;50.144;8.176;2023-05-07T11:12:47;2.90;;;2.28;;
17441;SDS011;8838;50.144;8.176;2023-05-07T11:15:37;2.80;;;2.40;;
17441;SDS011;8838;50.144;8.176;2023-05-07T11:18:08;3.50;;;2.42;;
17441;SDS011;8838;50.144;8.176;2023-05-07T11:20:45;3.15;;;2.10;;
17441;SDS011;8838;50.144;8.176;2023-05-07T11:26:42;2.75;;;2.28;;
17441;SDS011;8838;50.144;8.176;2023-05-07T11:29:11;3.00;;;2.30;;
17441;SDS011;8838;50.144;8.176;2023-05-07T11:31:42;3.67;;;2.60;;
17441;SDS011;8838;50.144;8.176;2023-05-07T11:34:11;2.47;;;2.00;;
17441;SDS011;8838;50.144;8.176;2023-05-07T11:36:41;2.78;;;2.00;;
17441;SDS011;8838;50.144;8.176;2023-05-07T11:41:56;3.00;;;2.45;;
17441;SDS011;8838;50.144;8.176;2023-05-07T11:44:23;2.85;;;2.10;;
17441;SDS011;8838;50.144;8.176;2023-05-07T11:46:50;3.90;;;1.75;;
17441;SDS011;8838;50.144;8.176;2023-05-07T11:49:18;2.00;;;1.80;;
17441;SDS011;8838;50.144;8.176;2023-05-07T11:51:45;4.07;;;2.08;;
17441;SDS011;8838;50.144;8.176;2023-05-07T11:54:15;4.85;;;2.03;;
17441;SDS011;8838;50.144;8.176;2023-05-07T11:56:43;3.47;;;2.35;;
17441;SDS011;8838;50.144;8.176;2023-05-07T11:59:12;2.88;;;2.00;;
17441;SDS011;8838;50.144;8.176;2023-05-07T12:01:45;3.45;;;2.10;;
17441;SDS011;8838;50.144;8.176;2023-05-07T12:04:12;2.88;;;2.03;;
17441;SDS011;8838;50.144;8.176;2023-05-07T12:06:40;2.67;;;1.88;;
17441;SDS011;8838;50.144;8.176;2023-05-07T12:09:07;4.68;;;2.38;;
17441;SDS011;8838;50.144;8.176;2023-05-07T12:11:36;5.55;;;2.20;;
17441;SDS011;8838;50.144;8.176;2023-05-07T12:14:06;3.75;;;2.22;;
17441;SDS011;8838;50.144;8.176;2023-05-07T12:16:33;5.22;;;2.45;;
17441;SDS011;8838;50.144;8.176;2023-05-07T12:19:00;2.17;;;1.90;;
17441;SDS011;8838;50.144;8.176;2023-05-07T12:21:28;2.22;;;1.90;;
17441;SDS011;8838;50.144;8.176;2023-05-07T12:23:56;3.28;;;2.03;;
17441;SDS011;8838;50.144;8.176;2023-05-07T12:26:24;4.28;;;2.13;;
17441;SDS011;8838;50.144;8.176;2023-05-07T12:28:51;3.25;;;2.38;;
17441;SDS011;8838;50.144;8.176;2023-05-07T12:31:18;2.25;;;1.90;;
17441;SDS011;8838;50.144;8.176;2023-05-07T12:33:45;6.50;;;4.75;;
17441;SDS011;8838;50.144;8.176;2023-05-07T12:36:12;6.72;;;5.93;;
17441;SDS011;8838;50.144;8.176;2023-05-07T12:38:40;2.50;;;2.25;;
17441;SDS011;8838;50.144;8.176;2023-05-07T12:41:09;3.53;;;2.20;;
17441;SDS011;8838;50.144;8.176;2023-05-07T12:43:37;2.58;;;2.20;;
17441;SDS011;8838;50.144;8.176;2023-05-07T12:46:04;3.90;;;2.40;;
17441;SDS011;8838;50.144;8.176;2023-05-07T12:48:33;2.50;;;2.30;;
17441;SDS011;8838;50.144;8.176;2023-05-07T12:51:02;3.17;;;2.75;;
17441;SDS011;8838;50.144;8.176;2023-05-07T12:53:31;2.92;;;2.30;;
17441;SDS011;8838;50.144;8.176;2023-05-07T12:55:58;2.38;;;2.17;;
17441;SDS011;8838;50.144;8.176;2023-05-07T12:58:27;4.38;;;2.50;;
17441;SDS011;8838;50.144;8.176;2023-05-07T13:00:56;3.90;;;2.60;;
17441;SDS011;8838;50.144;8.176;2023-05-07T13:03:26;2.92;;;2.58;;
17441;SDS011;8838;50.144;8.176;2023-05-07T13:05:56;5.40;;;2.53;;
17441;SDS011;8838;50.144;8.176;2023-05-07T13:08:25;3.35;;;2.65;;
17441;SDS011;8838;50.144;8.176;2023-05-07T13:10:53;3.05;;;2.75;;
17441;SDS011;8838;50.144;8.176;2023-05-07T13:13:20;3.72;;;2.78;;
17441;SDS011;8838;50.144;8.176;2023-05-07T13:15:49;3.20;;;2.90;;
17441;SDS011;8838;50.144;8.176;2023-05-07T13:18:15;4.50;;;3.00;;
17441;SDS011;8838;50.144;8.176;2023-05-07T13:20:43;4.07;;;3.10;;
17441;SDS011;8838;50.144;8.176;2023-05-07T13:23:10;3.10;;;2.70;;
17441;SDS011;8838;50.144;8.176;2023-05-07T13:25:37;3.50;;;3.15;;
17441;SDS011;8838;50.144;8.176;2023-05-07T13:28:03;4.03;;;2.50;;
17441;SDS011;8838;50.144;8.176;2023-05-07T13:30:30;4.20;;;2.55;;
17441;SDS011;8838;50.144;8.176;2023-05-07T13:32:59;4.05;;;2.42;;
17441;SDS011;8838;50.144;8.176;2023-05-07T13:35:26;2.55;;;2.25;;
17441;SDS011;8838;50.144;8.176;2023-05-07T13:37:53;3.78;;;2.50;;
17441;SDS011;8838;50.144;8.176;2023-05-07T13:40:20;5.22;;;2.80;;
17441;SDS011;8838;50.144;8.176;2023-05-07T13:42:47;4.63;;;2.85;;
17441;SDS011;8838;50.144;8.176;2023-05-07T13:45:15;3.80;;;2.70;;
17441;SDS011;8838;50.144;8.176;2023-05-07T13:47:42;5.47;;;2.88;;
17441;SDS011;8838;50.144;8.176;2023-05-07T13:50:11;4.82;;;2.47;;
17441;SDS011;8838;50.144;8.176;2023-05-07T13:52:40;2.95;;;2.58;;
17441;SDS011;8838;50.144;8.176;2023-05-07T13:55:08;2.72;;;2.53;;
17441;SDS011;8838;50.144;8.176;2023-05-07T13:57:35;3.78;;;2.80;;
17441;SDS011;8838;50.144;8.176;2023-05-07T14:00:02;3.00;;;2.70;;
17441;SDS011;8838;50.144;8.176;2023-05-07T14:02:30;2.92;;;2.40;;
17441;SDS011;8838;50.144;8.176;2023-05-07T14:04:57;3.65;;;2.70;;
17441;SDS011;8838;50.144;8.176;2023-05-07T14:07:25;4.25;;;2.70;;
17441;SDS011;8838;50.144;8.176;2023-05-07T14:09:52;4.95;;;2.70;;
17441;SDS011;8838;50.144;8.176;2023-05-07T14:12:18;4.78;;;2.60;;
17441;SDS011;8838;50.144;8.176;2023-05-07T14:14:45;3.70;;;2.58;;
17441;SDS011;8838;50.144;8.176;2023-05-07T14:17:14;2.78;;;2.50;;
17441;SDS011;8838;50.144;8.176;2023-05-07T14:19:42;2.53;;;2.03;;
17441;SDS011;8838;50.144;8.176;2023-05-07T14:22:08;3.03;;;2.13;;
17441;SDS011;8838;50.144;8.176;2023-05-07T14:24:37;2.83;;;2.45;;
17441;SDS011;8838;50.144;8.176;2023-05-07T14:27:06;4.15;;;2.40;;
17441;SDS011;8838;50.144;8.176;2023-05-07T14:29:33;3.47;;;2.45;;
17441;SDS011;8838;50.144;8.176;2023-05-07T14:32:01;4.75;;;2.55;;
17441;SDS011;8838;50.144;8.176;2023-05-07T14:34:28;2.53;;;2.17;;
17441;SDS011;8838;50.144;8.176;2023-05-07T14:36:55;2.72;;;2.45;;
17441;SDS011;8838;50.144;8.176;2023-05-07T14:39:22;6.07;;;2.50;;
17441;SDS011;8838;50.144;8.176;2023-05-07T14:41:50;4.45;;;2.50;;
17441;SDS011;8838;50.144;8.176;2023-05-07T14:44:19;3.92;;;2.85;;
17441;SDS011;8838;50.144;8.176;2023-05-07T14:46:46;3.58;;;2.72;;
17441;SDS011;8838;50.144;8.176;2023-05-07T14:49:13;2.42;;;2.22;;
17441;SDS011;8838;50.144;8.176;2023-05-07T14:51:42;3.50;;;2.30;;
17441;SDS011;8838;50.144;8.176;2023-05-07T14:54:09;5.70;;;3.28;;
17441;SDS011;8838;50.144;8.176;2023-05-07T14:56:36;4.45;;;4.05;;
17441;SDS011;8838;50.144;8.176;2023-05-07T14:59:04;6.35;;;3.92;;
17441;SDS011;8838;50.144;8.176;2023-05-07T15:01:31;4.78;;;2.80;;
17441;SDS011;8838;50.144;8.176;2023-05-07T15:03:57;5.07;;;2.67;;
17441;SDS011;8838;50.144;8.176;2023-05-07T15:06:25;5.03;;;3.22;;
17441;SDS011;8838;50.144;8.176;2023-05-07T15:08:52;3.33;;;2.67;;
17441;SDS011;8838;50.144;8.176;2023-05-07T15:11:19;3.22;;;2.50;;
17441;SDS011;8838;50.144;8.176;2023-05-07T15:13:46;3.65;;;2.65;;
17441;SDS011;8838;50.144;8.176;2023-05-07T15:16:14;5.78;;;2.40;;